sensor_id;sensor_type;location;lat;lon;timestamp;temperature;humidity
35085;SHT85;21267;51.032;6.998;2023-07-20T00:01:38;18.17;77.45
35085;SHT85;21267;51.032;6.998;2023-07-20T00:04:07;18.17;77.46
35085;SHT85;21267;51.032;6.998;2023-07-20T00:06:47;18.09;77.79
35085;SHT85;21267;51.032;6.998;2023-07-20T00:09:14;18.14;77.74
35085;SHT85;21267;51.032;6.998;2023-07-20T00:11:48;18.08;78.08
35085;SHT85;21267;51.032;6.998;2023-07-20T00:14:16;18.14;77.90
35085;SHT85;21267;51.032;6.998;2023-07-20T00:16:43;18.05;78.25
35085;SHT85;21267;51.032;6.998;2023-07-20T00:19:10;18.16;77.95
35085;SHT85;21267;51.032;6.998;2023-07-20T00:21:36;18.09;78.15
35085;SHT85;21267;51.032;6.998;2023-07-20T00:24:06;18.02;78.25
35085;SHT85;21267;51.032;6.998;2023-07-20T00:26:33;18.02;78.18
35085;SHT85;21267;51.032;6.998;2023-07-20T00:29:00;18.06;78.18
35085;SHT85;21267;51.032;6.998;2023-07-20T00:31:27;18.02;78.17
35085;SHT85;21267;51.032;6.998;2023-07-20T00:33:55;18.06;78.14
35085;SHT85;21267;51.032;6.998;2023-07-20T00:36:22;18.19;77.94
35085;SHT85;21267;51.032;6.998;2023-07-20T00:38:49;18.13;77.96
35085;SHT85;21267;51.032;6.998;2023-07-20T00:41:16;18.13;77.93
35085;SHT85;21267;51.032;6.998;2023-07-20T00:43:42;18.16;77.91
35085;SHT85;21267;51.032;6.998;2023-07-20T00:46:09;18.17;78.01
35085;SHT85;21267;51.032;6.998;2023-07-20T00:48:36;18.19;77.82
35085;SHT85;21267;51.032;6.998;2023-07-20T00:51:03;18.08;78.28
35085;SHT85;21267;51.032;6.998;2023-07-20T00:53:31;18.05;78.23
35085;SHT85;21267;51.032;6.998;2023-07-20T00:55:58;18.03;78.46
35085;SHT85;21267;51.032;6.998;2023-07-20T00:58:25;17.95;78.84
35085;SHT85;21267;51.032;6.998;2023-07-20T01:00:52;17.99;78.69
35085;SHT85;21267;51.032;6.998;2023-07-20T01:03:18;17.87;78.90
35085;SHT85;21267;51.032;6.998;2023-07-20T01:05:54;17.92;78.92
35085;SHT85;21267;51.032;6.998;2023-07-20T01:11:11;17.87;79.03
35085;SHT85;21267;51.032;6.998;2023-07-20T01:13:40;17.96;78.78
35085;SHT85;21267;51.032;6.998;2023-07-20T01:16:06;17.96;78.79
35085;SHT85;21267;51.032;6.998;2023-07-20T01:18:33;17.93;78.85
35085;SHT85;21267;51.032;6.998;2023-07-20T01:21:05;17.99;78.82
35085;SHT85;21267;51.032;6.998;2023-07-20T01:26:28;18.00;78.83
35085;SHT85;21267;51.032;6.998;2023-07-20T01:31:47;17.98;79.04
35085;SHT85;21267;51.032;6.998;2023-07-20T01:34:17;18.00;79.11
35085;SHT85;21267;51.032;6.998;2023-07-20T01:36:45;17.95;79.15
35085;SHT85;21267;51.032;6.998;2023-07-20T01:39:12;18.00;79.06
35085;SHT85;21267;51.032;6.998;2023-07-20T01:41:39;18.09;78.95
35085;SHT85;21267;51.032;6.998;2023-07-20T01:44:06;18.06;79.15
35085;SHT85;21267;51.032;6.998;2023-07-20T01:46:32;17.98;79.68
35085;SHT85;21267;51.032;6.998;2023-07-20T01:48:59;18.06;79.62
35085;SHT85;21267;51.032;6.998;2023-07-20T01:51:26;18.05;79.63
35085;SHT85;21267;51.032;6.998;2023-07-20T01:53:52;17.96;80.22
35085;SHT85;21267;51.032;6.998;2023-07-20T01:56:19;17.83;81.53
35085;SHT85;21267;51.032;6.998;2023-07-20T01:58:49;17.71;82.05
35085;SHT85;21267;51.032;6.998;2023-07-20T02:01:16;17.78;82.51
35085;SHT85;21267;51.032;6.998;2023-07-20T02:03:42;17.51;83.06
35085;SHT85;21267;51.032;6.998;2023-07-20T02:06:09;17.59;82.95
35085;SHT85;21267;51.032;6.998;2023-07-20T02:08:36;17.52;83.45
35085;SHT85;21267;51.032;6.998;2023-07-20T02:11:02;17.57;83.02
35085;SHT85;21267;51.032;6.998;2023-07-20T02:13:31;17.44;83.48
35085;SHT85;21267;51.032;6.998;2023-07-20T02:15:58;17.47;83.12
35085;SHT85;21267;51.032;6.998;2023-07-20T02:18:25;17.40;83.19
35085;SHT85;21267;51.032;6.998;2023-07-20T02:20:53;17.34;83.30
35085;SHT85;21267;51.032;6.998;2023-07-20T02:23:20;17.27;83.63
35085;SHT85;21267;51.032;6.998;2023-07-20T02:25:47;17.23;83.87
35085;SHT85;21267;51.032;6.998;2023-07-20T02:28:14;17.24;83.85
35085;SHT85;21267;51.032;6.998;2023-07-20T02:30:41;17.21;83.76
35085;SHT85;21267;51.032;6.998;2023-07-20T02:33:08;17.24;83.91
35085;SHT85;21267;51.032;6.998;2023-07-20T02:35:35;17.21;84.30
35085;SHT85;21267;51.032;6.998;2023-07-20T02:38:02;17.20;84.28
35085;SHT85;21267;51.032;6.998;2023-07-20T02:40:30;17.15;84.41
35085;SHT85;21267;51.032;6.998;2023-07-20T02:42:57;17.11;84.54
35085;SHT85;21267;51.032;6.998;2023-07-20T02:45:23;17.13;84.50
35085;SHT85;21267;51.032;6.998;2023-07-20T02:47:50;17.06;84.70
35085;SHT85;21267;51.032;6.998;2023-07-20T02:50:17;17.06;85.00
35085;SHT85;21267;51.032;6.998;2023-07-20T02:52:43;17.06;84.88
35085;SHT85;21267;51.032;6.998;2023-07-20T02:55:10;17.13;84.73
35085;SHT85;21267;51.032;6.998;2023-07-20T02:57:37;17.11;84.76
35085;SHT85;21267;51.032;6.998;2023-07-20T03:00:04;17.17;84.73
35085;SHT85;21267;51.032;6.998;2023-07-20T03:02:32;17.18;84.61
35085;SHT85;21267;51.032;6.998;2023-07-20T03:05:01;17.23;84.34
35085;SHT85;21267;51.032;6.998;2023-07-20T03:07:30;17.23;84.35
35085;SHT85;21267;51.032;6.998;2023-07-20T03:09:57;17.15;84.62
35085;SHT85;21267;51.032;6.998;2023-07-20T03:12:24;17.23;84.48
35085;SHT85;21267;51.032;6.998;2023-07-20T03:14:51;17.18;84.63
35085;SHT85;21267;51.032;6.998;2023-07-20T03:17:17;17.26;84.51
35085;SHT85;21267;51.032;6.998;2023-07-20T03:19:44;17.15;84.69
35085;SHT85;21267;51.032;6.998;2023-07-20T03:22:11;17.15;84.57
35085;SHT85;21267;51.032;6.998;2023-07-20T03:24:40;17.07;84.88
35085;SHT85;21267;51.032;6.998;2023-07-20T03:27:07;17.11;84.82
35085;SHT85;21267;51.032;6.998;2023-07-20T03:29:33;17.02;85.03
35085;SHT85;21267;51.032;6.998;2023-07-20T03:32:00;17.07;84.72
35085;SHT85;21267;51.032;6.998;2023-07-20T03:34:27;17.10;84.87
35085;SHT85;21267;51.032;6.998;2023-07-20T03:36:54;17.10;84.83
35085;SHT85;21267;51.032;6.998;2023-07-20T03:39:22;17.08;84.65
35085;SHT85;21267;51.032;6.998;2023-07-20T03:41:51;16.94;85.01
35085;SHT85;21267;51.032;6.998;2023-07-20T03:44:24;16.93;85.11
35085;SHT85;21267;51.032;6.998;2023-07-20T03:46:55;17.11;84.61
35085;SHT85;21267;51.032;6.998;2023-07-20T03:49:22;17.14;84.53
35085;SHT85;21267;51.032;6.998;2023-07-20T03:51:49;17.18;84.18
35085;SHT85;21267;51.032;6.998;2023-07-20T03:54:16;17.13;84.27
35085;SHT85;21267;51.032;6.998;2023-07-20T03:56:42;17.13;84.34
35085;SHT85;21267;51.032;6.998;2023-07-20T03:59:12;17.15;84.32
35085;SHT85;21267;51.032;6.998;2023-07-20T04:01:38;17.04;84.56
35085;SHT85;21267;51.032;6.998;2023-07-20T04:04:07;17.04;84.65
35085;SHT85;21267;51.032;6.998;2023-07-20T04:06:35;17.11;84.50
35085;SHT85;21267;51.032;6.998;2023-07-20T04:09:03;17.04;84.62
35085;SHT85;21267;51.032;6.998;2023-07-20T04:11:29;16.97;84.85
35085;SHT85;21267;51.032;6.998;2023-07-20T04:13:56;17.02;84.59
35085;SHT85;21267;51.032;6.998;2023-07-20T04:16:23;17.14;84.40
35085;SHT85;21267;51.032;6.998;2023-07-20T04:18:50;17.14;84.36
35085;SHT85;21267;51.032;6.998;2023-07-20T04:21:16;17.08;84.47
35085;SHT85;21267;51.032;6.998;2023-07-20T04:23:43;16.99;84.72
35085;SHT85;21267;51.032;6.998;2023-07-20T04:26:10;17.07;84.64
35085;SHT85;21267;51.032;6.998;2023-07-20T04:28:39;16.97;84.75
35085;SHT85;21267;51.032;6.998;2023-07-20T04:31:12;17.08;84.79
35085;SHT85;21267;51.032;6.998;2023-07-20T04:33:39;17.11;84.40
35085;SHT85;21267;51.032;6.998;2023-07-20T04:36:06;17.11;84.40
35085;SHT85;21267;51.032;6.998;2023-07-20T04:38:33;17.14;84.15
35085;SHT85;21267;51.032;6.998;2023-07-20T04:41:00;17.11;84.43
35085;SHT85;21267;51.032;6.998;2023-07-20T04:43:29;16.99;84.74
35085;SHT85;21267;51.032;6.998;2023-07-20T04:45:56;16.99;84.84
35085;SHT85;21267;51.032;6.998;2023-07-20T04:48:24;17.18;84.56
35085;SHT85;21267;51.032;6.998;2023-07-20T04:50:50;17.17;84.33
35085;SHT85;21267;51.032;6.998;2023-07-20T04:53:17;17.07;84.59
35085;SHT85;21267;51.032;6.998;2023-07-20T04:55:49;17.07;84.64
35085;SHT85;21267;51.032;6.998;2023-07-20T04:58:18;17.21;84.31
35085;SHT85;21267;51.032;6.998;2023-07-20T05:00:46;17.24;84.26
35085;SHT85;21267;51.032;6.998;2023-07-20T05:03:12;17.18;84.38
35085;SHT85;21267;51.032;6.998;2023-07-20T05:05:40;17.14;84.64
35085;SHT85;21267;51.032;6.998;2023-07-20T05:08:07;17.21;84.61
35085;SHT85;21267;51.032;6.998;2023-07-20T05:10:33;17.20;84.42
35085;SHT85;21267;51.032;6.998;2023-07-20T05:13:00;17.17;84.31
35085;SHT85;21267;51.032;6.998;2023-07-20T05:15:34;17.28;84.28
35085;SHT85;21267;51.032;6.998;2023-07-20T05:18:01;17.26;84.19
35085;SHT85;21267;51.032;6.998;2023-07-20T05:20:28;17.24;84.28
35085;SHT85;21267;51.032;6.998;2023-07-20T05:22:55;17.21;84.36
35085;SHT85;21267;51.032;6.998;2023-07-20T05:25:21;17.28;84.22
35085;SHT85;21267;51.032;6.998;2023-07-20T05:27:49;17.27;84.37
35085;SHT85;21267;51.032;6.998;2023-07-20T05:30:18;17.47;84.12
35085;SHT85;21267;51.032;6.998;2023-07-20T05:32:48;17.42;83.75
35085;SHT85;21267;51.032;6.998;2023-07-20T05:35:23;17.32;84.45
35085;SHT85;21267;51.032;6.998;2023-07-20T05:37:51;17.11;84.75
35085;SHT85;21267;51.032;6.998;2023-07-20T05:40:18;17.18;84.70
35085;SHT85;21267;51.032;6.998;2023-07-20T05:42:46;17.11;85.25
35085;SHT85;21267;51.032;6.998;2023-07-20T05:45:14;17.23;84.89
35085;SHT85;21267;51.032;6.998;2023-07-20T05:47:42;17.20;84.94
35085;SHT85;21267;51.032;6.998;2023-07-20T05:50:09;17.13;85.13
35085;SHT85;21267;51.032;6.998;2023-07-20T05:52:36;17.07;85.39
35085;SHT85;21267;51.032;6.998;2023-07-20T05:55:06;17.06;85.68
35085;SHT85;21267;51.032;6.998;2023-07-20T05:57:33;17.04;85.37
35085;SHT85;21267;51.032;6.998;2023-07-20T06:00:00;17.04;85.29
35085;SHT85;21267;51.032;6.998;2023-07-20T06:02:26;17.10;85.07
35085;SHT85;21267;51.032;6.998;2023-07-20T06:04:54;17.23;84.59
35085;SHT85;21267;51.032;6.998;2023-07-20T06:07:22;17.24;84.70
35085;SHT85;21267;51.032;6.998;2023-07-20T06:09:49;17.41;84.41
35085;SHT85;21267;51.032;6.998;2023-07-20T06:12:16;17.17;85.05
35085;SHT85;21267;51.032;6.998;2023-07-20T06:14:43;17.23;85.16
35085;SHT85;21267;51.032;6.998;2023-07-20T06:17:10;17.21;85.09
35085;SHT85;21267;51.032;6.998;2023-07-20T06:19:36;17.51;84.53
35085;SHT85;21267;51.032;6.998;2023-07-20T06:22:04;17.66;84.10
35085;SHT85;21267;51.032;6.998;2023-07-20T06:24:30;17.76;83.41
35085;SHT85;21267;51.032;6.998;2023-07-20T06:26:57;18.14;82.90
35085;SHT85;21267;51.032;6.998;2023-07-20T06:33:39;18.29;82.04
35085;SHT85;21267;51.032;6.998;2023-07-20T06:36:06;17.87;83.03
35085;SHT85;21267;51.032;6.998;2023-07-20T06:38:33;17.98;82.83
35085;SHT85;21267;51.032;6.998;2023-07-20T06:40:59;18.05;81.84
35085;SHT85;21267;51.032;6.998;2023-07-20T06:43:30;18.20;81.52
35085;SHT85;21267;51.032;6.998;2023-07-20T06:46:00;18.19;81.20
35085;SHT85;21267;51.032;6.998;2023-07-20T06:48:27;18.44;80.82
35085;SHT85;21267;51.032;6.998;2023-07-20T06:50:53;18.65;80.45
35085;SHT85;21267;51.032;6.998;2023-07-20T06:53:20;18.74;79.45
35085;SHT85;21267;51.032;6.998;2023-07-20T06:55:47;18.58;80.02
35085;SHT85;21267;51.032;6.998;2023-07-20T06:58:14;18.45;80.48
35085;SHT85;21267;51.032;6.998;2023-07-20T07:00:41;18.48;80.58
35085;SHT85;21267;51.032;6.998;2023-07-20T07:03:08;18.44;80.72
35085;SHT85;21267;51.032;6.998;2023-07-20T07:05:36;18.37;80.61
35085;SHT85;21267;51.032;6.998;2023-07-20T07:08:07;18.41;80.22
35085;SHT85;21267;51.032;6.998;2023-07-20T07:10:35;18.55;79.57
35085;SHT85;21267;51.032;6.998;2023-07-20T07:13:03;18.71;79.40
35085;SHT85;21267;51.032;6.998;2023-07-20T07:15:31;18.85;78.43
35085;SHT85;21267;51.032;6.998;2023-07-20T07:17:58;18.94;78.82
35085;SHT85;21267;51.032;6.998;2023-07-20T07:20:26;18.84;78.32
35085;SHT85;21267;51.032;6.998;2023-07-20T07:22:53;18.72;78.72
35085;SHT85;21267;51.032;6.998;2023-07-20T07:25:22;18.77;78.13
35085;SHT85;21267;51.032;6.998;2023-07-20T07:27:51;19.13;77.41
35085;SHT85;21267;51.032;6.998;2023-07-20T07:30:19;19.12;77.31
35085;SHT85;21267;51.032;6.998;2023-07-20T07:32:46;18.95;77.49
35085;SHT85;21267;51.032;6.998;2023-07-20T07:35:12;18.91;77.58
35085;SHT85;21267;51.032;6.998;2023-07-20T07:37:40;19.10;77.06
35085;SHT85;21267;51.032;6.998;2023-07-20T07:40:09;18.96;77.29
35085;SHT85;21267;51.032;6.998;2023-07-20T07:42:38;19.30;75.85
35085;SHT85;21267;51.032;6.998;2023-07-20T07:45:05;19.35;75.14
35085;SHT85;21267;51.032;6.998;2023-07-20T07:47:32;19.43;75.10
35085;SHT85;21267;51.032;6.998;2023-07-20T07:49:59;19.16;76.21
35085;SHT85;21267;51.032;6.998;2023-07-20T07:52:26;18.92;77.28
35085;SHT85;21267;51.032;6.998;2023-07-20T07:54:52;18.91;77.26
35085;SHT85;21267;51.032;6.998;2023-07-20T07:57:19;18.91;77.30
35085;SHT85;21267;51.032;6.998;2023-07-20T07:59:46;18.92;76.74
35085;SHT85;21267;51.032;6.998;2023-07-20T08:02:13;19.23;76.39
35085;SHT85;21267;51.032;6.998;2023-07-20T08:04:43;19.32;75.59
35085;SHT85;21267;51.032;6.998;2023-07-20T08:07:09;19.16;75.79
35085;SHT85;21267;51.032;6.998;2023-07-20T08:09:37;19.15;76.23
35085;SHT85;21267;51.032;6.998;2023-07-20T08:12:04;19.15;75.99
35085;SHT85;21267;51.032;6.998;2023-07-20T08:14:31;19.09;76.14
35085;SHT85;21267;51.032;6.998;2023-07-20T08:16:58;19.03;76.65
35085;SHT85;21267;51.032;6.998;2023-07-20T08:19:25;19.15;75.90
35085;SHT85;21267;51.032;6.998;2023-07-20T08:21:52;19.08;76.02
35085;SHT85;21267;51.032;6.998;2023-07-20T08:24:19;19.26;75.66
35085;SHT85;21267;51.032;6.998;2023-07-20T08:26:46;19.39;75.11
35085;SHT85;21267;51.032;6.998;2023-07-20T08:29:12;19.46;75.10
35085;SHT85;21267;51.032;6.998;2023-07-20T08:31:39;20.26;71.87
35085;SHT85;21267;51.032;6.998;2023-07-20T08:34:06;21.07;68.27
35085;SHT85;21267;51.032;6.998;2023-07-20T08:36:49;21.71;66.27
35085;SHT85;21267;51.032;6.998;2023-07-20T08:39:16;21.96;66.62
35085;SHT85;21267;51.032;6.998;2023-07-20T08:41:43;22.23;66.14
35085;SHT85;21267;51.032;6.998;2023-07-20T08:44:11;22.53;65.53
35085;SHT85;21267;51.032;6.998;2023-07-20T08:46:40;21.52;66.67
35085;SHT85;21267;51.032;6.998;2023-07-20T08:49:06;22.04;66.15
35085;SHT85;21267;51.032;6.998;2023-07-20T08:51:35;21.39;65.75
35085;SHT85;21267;51.032;6.998;2023-07-20T08:54:02;20.97;65.46
35085;SHT85;21267;51.032;6.998;2023-07-20T08:56:30;21.00;64.95
35085;SHT85;21267;51.032;6.998;2023-07-20T08:58:58;20.86;65.23
35085;SHT85;21267;51.032;6.998;2023-07-20T09:01:26;21.03;64.96
35085;SHT85;21267;51.032;6.998;2023-07-20T09:03:55;21.90;63.80
35085;SHT85;21267;51.032;6.998;2023-07-20T09:06:22;21.25;64.13
35085;SHT85;21267;51.032;6.998;2023-07-20T09:08:49;20.96;65.37
35085;SHT85;21267;51.032;6.998;2023-07-20T09:11:16;20.69;66.62
35085;SHT85;21267;51.032;6.998;2023-07-20T09:13:43;20.70;66.03
35085;SHT85;21267;51.032;6.998;2023-07-20T09:16:13;20.87;65.85
35085;SHT85;21267;51.032;6.998;2023-07-20T09:18:41;21.79;62.89
35085;SHT85;21267;51.032;6.998;2023-07-20T09:21:08;22.14;61.52
35085;SHT85;21267;51.032;6.998;2023-07-20T09:23:37;22.54;59.50
35085;SHT85;21267;51.032;6.998;2023-07-20T09:26:12;22.95;58.16
35085;SHT85;21267;51.032;6.998;2023-07-20T09:29:08;22.19;61.17
35085;SHT85;21267;51.032;6.998;2023-07-20T09:31:35;22.64;61.08
35085;SHT85;21267;51.032;6.998;2023-07-20T09:34:07;23.01;60.54
35085;SHT85;21267;51.032;6.998;2023-07-20T09:36:35;22.48;61.10
35085;SHT85;21267;51.032;6.998;2023-07-20T09:39:05;21.81;62.78
35085;SHT85;21267;51.032;6.998;2023-07-20T09:41:41;22.20;62.62
35085;SHT85;21267;51.032;6.998;2023-07-20T09:44:15;23.38;59.83
35085;SHT85;21267;51.032;6.998;2023-07-20T09:46:47;24.48;55.46
35085;SHT85;21267;51.032;6.998;2023-07-20T09:49:17;24.25;55.37
35085;SHT85;21267;51.032;6.998;2023-07-20T09:51:47;24.38;54.97
35085;SHT85;21267;51.032;6.998;2023-07-20T09:54:14;23.56;56.68
35085;SHT85;21267;51.032;6.998;2023-07-20T09:56:42;23.05;57.98
35085;SHT85;21267;51.032;6.998;2023-07-20T09:59:09;23.66;57.20
35085;SHT85;21267;51.032;6.998;2023-07-20T10:01:37;23.79;56.24
35085;SHT85;21267;51.032;6.998;2023-07-20T10:04:09;23.76;57.29
35085;SHT85;21267;51.032;6.998;2023-07-20T10:06:41;24.07;57.37
35085;SHT85;21267;51.032;6.998;2023-07-20T10:09:10;24.14;56.61
35085;SHT85;21267;51.032;6.998;2023-07-20T10:11:40;24.20;56.33
35085;SHT85;21267;51.032;6.998;2023-07-20T10:14:12;24.87;54.31
35085;SHT85;21267;51.032;6.998;2023-07-20T10:16:43;25.07;52.58
35085;SHT85;21267;51.032;6.998;2023-07-20T10:19:44;25.38;51.56
35085;SHT85;21267;51.032;6.998;2023-07-20T10:22:19;24.41;53.20
35085;SHT85;21267;51.032;6.998;2023-07-20T10:24:50;25.53;51.84
35085;SHT85;21267;51.032;6.998;2023-07-20T10:27:21;25.94;49.91
35085;SHT85;21267;51.032;6.998;2023-07-20T10:29:56;24.76;53.09
35085;SHT85;21267;51.032;6.998;2023-07-20T10:32:25;23.96;54.53
35085;SHT85;21267;51.032;6.998;2023-07-20T10:34:55;23.50;55.91
35085;SHT85;21267;51.032;6.998;2023-07-20T10:37:46;22.75;57.36
35085;SHT85;21267;51.032;6.998;2023-07-20T10:40:34;23.36;56.52
35085;SHT85;21267;51.032;6.998;2023-07-20T10:43:05;23.46;56.21
35085;SHT85;21267;51.032;6.998;2023-07-20T10:45:47;24.16;54.69
35085;SHT85;21267;51.032;6.998;2023-07-20T10:48:25;25.53;51.43
35085;SHT85;21267;51.032;6.998;2023-07-20T10:51:11;25.20;50.62
35085;SHT85;21267;51.032;6.998;2023-07-20T10:53:41;24.41;51.65
35085;SHT85;21267;51.032;6.998;2023-07-20T10:56:11;24.00;52.95
35085;SHT85;21267;51.032;6.998;2023-07-20T10:58:38;24.92;51.47
35085;SHT85;21267;51.032;6.998;2023-07-20T11:01:05;25.34;50.63
35085;SHT85;21267;51.032;6.998;2023-07-20T11:03:34;25.88;49.14
35085;SHT85;21267;51.032;6.998;2023-07-20T11:11:30;26.04;48.99
35085;SHT85;21267;51.032;6.998;2023-07-20T11:13:59;25.44;50.65
35085;SHT85;21267;51.032;6.998;2023-07-20T11:16:40;25.58;49.95
35085;SHT85;21267;51.032;6.998;2023-07-20T11:19:22;24.59;50.08
35085;SHT85;21267;51.032;6.998;2023-07-20T11:21:57;24.45;49.81
35085;SHT85;21267;51.032;6.998;2023-07-20T11:24:27;24.18;50.36
35085;SHT85;21267;51.032;6.998;2023-07-20T11:26:54;25.47;49.18
35085;SHT85;21267;51.032;6.998;2023-07-20T11:29:23;26.13;47.62
35085;SHT85;21267;51.032;6.998;2023-07-20T11:32:00;26.69;46.66
35085;SHT85;21267;51.032;6.998;2023-07-20T11:34:30;26.52;46.63
35085;SHT85;21267;51.032;6.998;2023-07-20T11:36:59;27.24;46.30
35085;SHT85;21267;51.032;6.998;2023-07-20T11:39:29;26.44;47.18
35085;SHT85;21267;51.032;6.998;2023-07-20T11:41:57;26.26;47.61
35085;SHT85;21267;51.032;6.998;2023-07-20T11:44:29;25.81;48.24
35085;SHT85;21267;51.032;6.998;2023-07-20T11:47:10;24.96;49.60
35085;SHT85;21267;51.032;6.998;2023-07-20T11:49:43;24.92;50.01
35085;SHT85;21267;51.032;6.998;2023-07-20T11:52:19;23.73;51.70
35085;SHT85;21267;51.032;6.998;2023-07-20T11:54:47;24.52;50.51
35085;SHT85;21267;51.032;6.998;2023-07-20T11:57:22;24.08;51.21
35085;SHT85;21267;51.032;6.998;2023-07-20T12:00:00;23.47;52.93
35085;SHT85;21267;51.032;6.998;2023-07-20T12:02:28;23.74;52.53
35085;SHT85;21267;51.032;6.998;2023-07-20T12:04:56;23.56;52.90
35085;SHT85;21267;51.032;6.998;2023-07-20T12:07:25;23.76;52.65
35085;SHT85;21267;51.032;6.998;2023-07-20T12:10:09;23.47;52.07
35085;SHT85;21267;51.032;6.998;2023-07-20T12:12:40;23.46;52.16
35085;SHT85;21267;51.032;6.998;2023-07-20T12:15:22;23.50;52.90
35085;SHT85;21267;51.032;6.998;2023-07-20T12:17:51;24.14;51.59
35085;SHT85;21267;51.032;6.998;2023-07-20T12:23:01;24.41;50.96
35085;SHT85;21267;51.032;6.998;2023-07-20T12:25:47;23.97;51.67
35085;SHT85;21267;51.032;6.998;2023-07-20T12:28:16;23.56;51.95
35085;SHT85;21267;51.032;6.998;2023-07-20T12:30:45;23.53;51.80
35085;SHT85;21267;51.032;6.998;2023-07-20T12:33:13;22.87;51.77
35085;SHT85;21267;51.032;6.998;2023-07-20T12:35:43;23.05;51.71
35085;SHT85;21267;51.032;6.998;2023-07-20T12:38:10;22.98;52.11
35085;SHT85;21267;51.032;6.998;2023-07-20T12:40:36;22.98;52.75
35085;SHT85;21267;51.032;6.998;2023-07-20T12:43:03;23.08;52.46
35085;SHT85;21267;51.032;6.998;2023-07-20T12:45:31;23.14;52.65
35085;SHT85;21267;51.032;6.998;2023-07-20T12:47:58;23.40;52.30
35085;SHT85;21267;51.032;6.998;2023-07-20T12:50:26;23.67;51.05
35085;SHT85;21267;51.032;6.998;2023-07-20T12:52:53;24.25;49.93
35085;SHT85;21267;51.032;6.998;2023-07-20T12:55:20;24.59;49.38
35085;SHT85;21267;51.032;6.998;2023-07-20T12:57:47;24.16;49.19
35085;SHT85;21267;51.032;6.998;2023-07-20T13:00:14;23.71;50.16
35085;SHT85;21267;51.032;6.998;2023-07-20T13:02:41;23.76;50.21
35085;SHT85;21267;51.032;6.998;2023-07-20T13:05:08;23.89;50.52
35085;SHT85;21267;51.032;6.998;2023-07-20T13:07:37;23.89;50.34
35085;SHT85;21267;51.032;6.998;2023-07-20T13:10:09;23.58;50.90
35085;SHT85;21267;51.032;6.998;2023-07-20T13:12:36;23.39;51.87
35085;SHT85;21267;51.032;6.998;2023-07-20T13:15:05;24.13;50.77
35085;SHT85;21267;51.032;6.998;2023-07-20T13:17:33;24.14;50.39
35085;SHT85;21267;51.032;6.998;2023-07-20T13:20:00;24.22;50.54
35085;SHT85;21267;51.032;6.998;2023-07-20T13:22:27;24.31;50.63
35085;SHT85;21267;51.032;6.998;2023-07-20T13:24:53;24.07;51.44
35085;SHT85;21267;51.032;6.998;2023-07-20T13:27:20;23.73;51.29
35085;SHT85;21267;51.032;6.998;2023-07-20T13:29:47;23.79;50.91
35085;SHT85;21267;51.032;6.998;2023-07-20T13:32:15;24.37;50.14
35085;SHT85;21267;51.032;6.998;2023-07-20T13:34:43;24.61;49.60
35085;SHT85;21267;51.032;6.998;2023-07-20T13:37:14;24.34;50.20
35085;SHT85;21267;51.032;6.998;2023-07-20T13:39:42;24.27;50.47
35085;SHT85;21267;51.032;6.998;2023-07-20T13:42:10;24.51;50.36
35085;SHT85;21267;51.032;6.998;2023-07-20T13:44:40;23.81;50.56
35085;SHT85;21267;51.032;6.998;2023-07-20T13:47:07;24.02;50.73
35085;SHT85;21267;51.032;6.998;2023-07-20T13:49:37;24.29;50.55
35085;SHT85;21267;51.032;6.998;2023-07-20T13:52:13;23.94;51.22
35085;SHT85;21267;51.032;6.998;2023-07-20T13:54:45;24.28;50.53
35085;SHT85;21267;51.032;6.998;2023-07-20T13:57:16;24.17;49.63
35085;SHT85;21267;51.032;6.998;2023-07-20T13:59:47;24.32;49.26
35085;SHT85;21267;51.032;6.998;2023-07-20T14:02:14;24.27;49.85
35085;SHT85;21267;51.032;6.998;2023-07-20T14:04:44;24.69;49.26
35085;SHT85;21267;51.032;6.998;2023-07-20T14:07:11;24.65;49.40
35085;SHT85;21267;51.032;6.998;2023-07-20T14:09:42;24.61;49.33
35085;SHT85;21267;51.032;6.998;2023-07-20T14:12:12;24.48;49.82
35085;SHT85;21267;51.032;6.998;2023-07-20T14:14:43;24.47;50.39
35085;SHT85;21267;51.032;6.998;2023-07-20T14:17:11;24.76;49.90
35085;SHT85;21267;51.032;6.998;2023-07-20T14:19:39;25.02;49.95
35085;SHT85;21267;51.032;6.998;2023-07-20T14:22:06;25.24;49.01
35085;SHT85;21267;51.032;6.998;2023-07-20T14:24:33;25.67;48.16
35085;SHT85;21267;51.032;6.998;2023-07-20T14:27:00;24.90;48.86
35085;SHT85;21267;51.032;6.998;2023-07-20T14:29:28;25.53;48.19
35085;SHT85;21267;51.032;6.998;2023-07-20T14:31:58;26.62;46.20
35085;SHT85;21267;51.032;6.998;2023-07-20T14:34:25;26.57;46.09
35085;SHT85;21267;51.032;6.998;2023-07-20T14:36:52;25.57;46.96
35085;SHT85;21267;51.032;6.998;2023-07-20T14:39:19;26.26;45.95
35085;SHT85;21267;51.032;6.998;2023-07-20T14:41:47;25.64;46.67
35085;SHT85;21267;51.032;6.998;2023-07-20T14:44:13;25.71;46.81
35085;SHT85;21267;51.032;6.998;2023-07-20T14:46:40;25.06;47.63
35085;SHT85;21267;51.032;6.998;2023-07-20T14:49:07;24.75;48.45
35085;SHT85;21267;51.032;6.998;2023-07-20T14:51:36;25.00;48.56
35085;SHT85;21267;51.032;6.998;2023-07-20T14:54:09;25.20;48.32
35085;SHT85;21267;51.032;6.998;2023-07-20T14:56:39;24.90;48.99
35085;SHT85;21267;51.032;6.998;2023-07-20T14:59:11;24.11;51.19
35085;SHT85;21267;51.032;6.998;2023-07-20T15:01:38;23.94;51.82
35085;SHT85;21267;51.032;6.998;2023-07-20T15:04:05;24.29;51.35
35085;SHT85;21267;51.032;6.998;2023-07-20T15:06:32;25.24;49.56
35085;SHT85;21267;51.032;6.998;2023-07-20T15:08:58;25.98;48.02
35085;SHT85;21267;51.032;6.998;2023-07-20T15:11:27;25.99;48.19
35085;SHT85;21267;51.032;6.998;2023-07-20T15:13:56;25.80;48.15
35085;SHT85;21267;51.032;6.998;2023-07-20T15:16:27;26.39;47.60
35085;SHT85;21267;51.032;6.998;2023-07-20T15:18:56;27.34;45.87
35085;SHT85;21267;51.032;6.998;2023-07-20T15:21:24;26.50;46.56
35085;SHT85;21267;51.032;6.998;2023-07-20T15:23:58;26.11;47.27
35085;SHT85;21267;51.032;6.998;2023-07-20T15:26:24;25.98;46.71
35085;SHT85;21267;51.032;6.998;2023-07-20T15:28:52;26.56;46.24
35085;SHT85;21267;51.032;6.998;2023-07-20T15:31:19;26.87;46.00
35085;SHT85;21267;51.032;6.998;2023-07-20T15:34:06;26.23;46.61
35085;SHT85;21267;51.032;6.998;2023-07-20T15:36:35;26.19;47.32
35085;SHT85;21267;51.032;6.998;2023-07-20T15:39:01;25.77;47.88
35085;SHT85;21267;51.032;6.998;2023-07-20T15:41:28;25.94;47.72
35085;SHT85;21267;51.032;6.998;2023-07-20T15:43:56;25.84;47.91
35085;SHT85;21267;51.032;6.998;2023-07-20T15:46:47;25.71;48.36
35085;SHT85;21267;51.032;6.998;2023-07-20T15:49:22;26.42;46.87
35085;SHT85;21267;51.032;6.998;2023-07-20T15:51:50;26.35;46.76
35085;SHT85;21267;51.032;6.998;2023-07-20T15:54:20;26.36;46.57
35085;SHT85;21267;51.032;6.998;2023-07-20T15:56:46;26.42;46.72
35085;SHT85;21267;51.032;6.998;2023-07-20T15:59:15;26.57;46.39
35085;SHT85;21267;51.032;6.998;2023-07-20T16:01:43;25.38;48.29